This is the latest recevied weather packets stored in our database for station/object OE3MHU-12. If no packets are shown the sender has not sent any weather packets the latest 10 day(s).
| Time | Temp. | Humidity | Pressure | Rain* | Wind** | Luminosity | Snow |
|---|---|---|---|---|---|---|---|
| 1777085781 | 2.78° C | 82% | 1016.3 hPa | 0 mm | - | - | - |
| 1777083981 | 2.78° C | 81% | 1016.4 hPa | 0 mm | - | - | - |
| 1777082182 | 3.33° C | 81% | 1016.5 hPa | 0 mm | - | - | - |
| 1777080381 | 3.89° C | 79% | 1016.4 hPa | 0 mm | - | - | - |
| 1777078581 | 4.44° C | 78% | 1016.5 hPa | 0 mm | - | - | - |
| 1777076781 | 5° C | 76% | 1016.5 hPa | 0 mm | - | - | - |
| 1777074981 | 5.56° C | 74% | 1016.4 hPa | 0 mm | - | - | - |
| 1777073181 | 6.11° C | 73% | 1016.7 hPa | 0 mm | - | - | - |
| 1777069581 | 6.67° C | 69% | 1016.8 hPa | 0 mm | - | - | - |
| 1777067782 | 7.78° C | 66% | 1016.8 hPa | 0 mm | - | - | - |
| 1777065982 | 8.33° C | 65% | 1016.8 hPa | 0 mm | - | - | - |
| 1777064182 | 8.89° C | 61% | 1016.5 hPa | 0 mm | - | - | - |
| 1777062382 | 9.44° C | 58% | 1016.2 hPa | 0 mm | - | - | - |
| 1777060582 | 10° C | 58% | 1016 hPa | 0 mm | - | - | - |
| 1777058782 | 11.67° C | 53% | 1015.8 hPa | 0 mm | - | - | - |
| 1777056982 | 13.33° C | 47% | 1015.5 hPa | 0 mm | - | - | - |
| 1777055182 | 14.44° C | 45% | 1015.2 hPa | 0 mm | - | - | - |
| 1777053382 | 16.11° C | 38% | 1015.1 hPa | 0 mm | - | - | - |
| 1777051582 | 17.78° C | 34% | 1014.7 hPa | 0 mm | - | - | - |
| 1777049782 | 18.33° C | 32% | 1014.6 hPa | 0 mm | - | - | - |
| 1777047982 | 19.44° C | 30% | 1014.6 hPa | 0 mm | - | - | - |
| 1777046182 | 20.56° C | 28% | 1014.6 hPa | 0 mm | - | - | - |
| 1777044383 | 20.56° C | 27% | 1014.7 hPa | 0 mm | - | - | - |
| 1777042583 | 21.11° C | 27% | 1014.7 hPa | 0 mm | - | - | - |
| 1777038983 | 20.56° C | 29% | 1014.9 hPa | 0 mm | - | - | - |
* Rain latest hour (hover to see other rain measurements)
** Current wind speed in m/s (hover to see current wind gust speed)